Lewiston, California
Current Conditions -  °F | °C
As of 5:55 PM on Saturday 22 Nov 2014 (Local Time) from KO54 Reporting Station
Clear Clear  
Wind Chill:   Ceiling: Unl
Heat Index:   Visibility: 10mi
Dew Point:   Wind: 0mph
Humidity: 81%   Direction: NA
Pressure: 30.18"   Gusts: NA
Location:  40.71°N, 122.81°W
Report Text: KO54 230155Z AUTO 00000KT 10SM CLR 06/03 A3018 RMK AO1
Loading
Personal Weather Stations






























Interactive Weather Map New forecast layout! Learn more

10-Day Weather Forecast

Advertisements
Track Severe Weather on mobile